createdAt,value
2019-01-15T00:00:34.560Z,0.32
2019-01-15T00:01:15.093Z,0.35
2019-01-15T00:01:55.614Z,0.41
2019-01-15T00:02:36.142Z,0.39
2019-01-15T00:03:16.671Z,0.38
2019-01-15T00:03:57.188Z,0.41
2019-01-15T00:04:37.710Z,0.44
2019-01-15T00:05:18.247Z,0.38
2019-01-15T00:05:58.794Z,0.44
2019-01-15T00:06:39.316Z,0.55
2019-01-15T00:07:19.848Z,0.47
2019-01-15T00:08:00.370Z,0.42
2019-01-15T00:08:40.903Z,0.49
2019-01-15T00:09:21.424Z,0.49
2019-01-15T00:10:01.966Z,0.55
2019-01-15T00:10:42.485Z,0.47
2019-01-15T00:11:23.025Z,0.47
2019-01-15T00:12:07.731Z,0.47
2019-01-15T00:12:44.086Z,0.53
2019-01-15T00:13:24.617Z,0.46
2019-01-15T00:14:05.141Z,0.47
2019-01-15T00:14:45.678Z,0.51
2019-01-15T00:15:26.211Z,0.55
2019-01-15T00:16:06.748Z,0.51
2019-01-15T00:16:47.283Z,0.55
2019-01-15T00:17:27.830Z,0.61
2019-01-15T00:18:08.375Z,0.61
2019-01-15T00:18:48.910Z,0.5
2019-01-15T00:19:29.451Z,0.58
2019-01-15T00:20:09.982Z,0.5
2019-01-15T00:20:50.501Z,0.55
2019-01-15T00:21:31.038Z,0.49
2019-01-15T00:22:11.572Z,0.49
2019-01-15T00:22:52.094Z,0.55
2019-01-15T00:23:32.617Z,0.5
2019-01-15T00:24:13.148Z,0.5
2019-01-15T00:24:53.676Z,0.44
2019-01-15T00:25:34.205Z,0.42
2019-01-15T00:26:14.744Z,0.47
2019-01-15T00:26:55.273Z,0.49
2019-01-15T00:27:35.805Z,0.49
2019-01-15T00:28:16.335Z,0.41
2019-01-15T00:28:56.868Z,0.44
2019-01-15T00:29:37.400Z,0.5
2019-01-15T00:30:17.931Z,0.53
2019-01-15T00:30:58.461Z,0.51
2019-01-15T00:31:38.978Z,0.47
2019-01-15T00:32:19.512Z,0.55
2019-01-15T00:33:00.043Z,0.51
2019-01-15T00:33:40.566Z,0.7
2019-01-15T00:34:21.107Z,0.53
2019-01-15T00:35:01.634Z,0.61
2019-01-15T00:35:49.119Z,0.65
2019-01-15T00:36:29.644Z,0.58
2019-01-15T00:37:10.164Z,0.55
2019-01-15T00:37:50.703Z,0.57
2019-01-15T00:38:31.235Z,0.53
2019-01-15T00:39:11.763Z,0.66
2019-01-15T00:39:52.292Z,0.66
2019-01-15T00:40:32.828Z,0.7
2019-01-15T00:41:13.357Z,0.62
2019-01-15T00:41:53.883Z,0.68
2019-01-15T00:42:34.436Z,0.62
2019-01-15T00:43:14.953Z,0.66
2019-01-15T00:43:55.473Z,0.69
2019-01-15T00:44:36.009Z,0.69
2019-01-15T00:45:16.533Z,0.57
2019-01-15T00:45:57.065Z,0.65
2019-01-15T00:46:37.593Z,0.62
2019-01-15T00:47:18.126Z,0.72
2019-01-15T00:47:58.652Z,0.75
2019-01-15T00:48:39.180Z,0.66
2019-01-15T00:49:19.719Z,0.68
2019-01-15T00:50:00.248Z,0.62
2019-01-15T00:50:40.777Z,0.75
2019-01-15T00:51:21.297Z,0.73
2019-01-15T00:52:01.840Z,0.7
2019-01-15T00:52:42.380Z,0.76
2019-01-15T00:53:22.930Z,0.75
2019-01-15T00:54:03.459Z,0.7
2019-01-15T00:54:43.975Z,0.69
2019-01-15T00:55:25.304Z,0.69
2019-01-15T00:56:05.828Z,0.78
2019-01-15T00:56:46.351Z,0.73
2019-01-15T00:57:26.891Z,0.78
2019-01-15T00:58:07.419Z,0.73
2019-01-15T00:58:47.945Z,0.75
2019-01-15T00:59:28.480Z,0.7
2019-01-15T01:00:09.010Z,0.76
2019-01-15T01:00:49.598Z,0.66
2019-01-15T01:01:30.079Z,0.72
2019-01-15T01:02:10.619Z,0.68
2019-01-15T01:02:51.142Z,0.7
2019-01-15T01:03:31.675Z,0.7
2019-01-15T01:04:12.210Z,0.78
2019-01-15T01:04:52.754Z,0.83
2019-01-15T01:05:33.287Z,0.75
2019-01-15T01:06:13.833Z,0.76
2019-01-15T01:06:54.344Z,0.73
2019-01-15T01:07:34.864Z,0.75
2019-01-15T01:08:15.381Z,0.75
2019-01-15T01:08:55.921Z,0.75
2019-01-15T01:09:36.459Z,0.76
2019-01-15T01:10:17.004Z,0.73
2019-01-15T01:10:57.550Z,0.78
2019-01-15T01:11:38.076Z,0.75
2019-01-15T01:12:22.229Z,0.78
2019-01-15T01:12:59.133Z,0.78
2019-01-15T01:13:39.658Z,0.83
2019-01-15T01:14:20.185Z,0.87
2019-01-15T01:15:00.724Z,0.79
2019-01-15T01:15:41.247Z,0.75
2019-01-15T01:16:21.783Z,0.72
2019-01-15T01:17:02.321Z,0.79
2019-01-15T01:17:42.847Z,0.8
2019-01-15T01:18:23.377Z,0.76
2019-01-15T01:19:03.914Z,0.79
2019-01-15T01:19:44.444Z,0.83
2019-01-15T01:20:24.971Z,0.78
2019-01-15T01:21:05.501Z,0.8
2019-01-15T01:21:46.042Z,0.83
2019-01-15T01:22:26.556Z,0.78
2019-01-15T01:23:07.089Z,0.86
2019-01-15T01:23:47.617Z,0.79
2019-01-15T01:26:36.180Z,0.8
2019-01-15T01:27:16.713Z,0.76
2019-01-15T01:27:57.257Z,0.8
2019-01-15T01:28:37.777Z,0.83
2019-01-15T01:29:18.297Z,0.78
2019-01-15T01:29:58.816Z,0.73
2019-01-15T01:30:39.346Z,0.75
2019-01-15T01:31:19.876Z,0.8
2019-01-15T01:32:00.414Z,0.86
2019-01-15T01:32:40.949Z,0.79
2019-01-15T01:33:21.471Z,0.78
2019-01-15T01:34:01.999Z,0.7
2019-01-15T01:34:42.527Z,0.73
2019-01-15T01:35:23.056Z,0.7
2019-01-15T01:36:03.600Z,0.76
2019-01-15T01:36:44.120Z,0.8
2019-01-15T01:37:24.667Z,0.75
2019-01-15T01:38:05.196Z,0.72
2019-01-15T01:38:45.733Z,0.79
2019-01-15T01:39:26.266Z,0.84
2019-01-15T01:40:06.795Z,0.78
2019-01-15T01:40:47.326Z,0.75
2019-01-15T01:41:27.859Z,0.76
2019-01-15T01:42:08.390Z,0.88
2019-01-15T01:42:48.929Z,0.87
2019-01-15T01:43:29.454Z,0.93
2019-01-15T01:44:09.978Z,0.88
2019-01-15T01:44:50.499Z,0.94
2019-01-15T01:45:31.027Z,0.93
2019-01-15T01:46:11.565Z,0.96
2019-01-15T01:46:52.091Z,0.91
2019-01-15T01:47:32.623Z,0.98
2019-01-15T01:48:13.152Z,0.96
2019-01-15T01:48:53.683Z,0.94
2019-01-15T01:49:34.212Z,0.98
2019-01-15T01:50:14.741Z,0.94
2019-01-15T01:50:55.282Z,0.97
2019-01-15T01:51:35.836Z,0.93
2019-01-15T01:52:16.356Z,0.93
2019-01-15T01:52:56.885Z,0.94
2019-01-15T01:53:37.418Z,0.94
2019-01-15T01:54:17.960Z,0.96
2019-01-15T01:54:58.957Z,0.97
2019-01-15T01:55:39.484Z,0.94
2019-01-15T01:56:20.014Z,1
2019-01-15T01:57:00.554Z,0.97
2019-01-15T01:57:41.080Z,1.06
2019-01-15T01:58:21.605Z,0.96
2019-01-15T01:59:02.135Z,0.98
2019-01-15T01:59:42.665Z,0.96
2019-01-15T02:00:23.182Z,0.93
2019-01-15T02:01:03.757Z,0.94
2019-01-15T02:01:44.259Z,0.93
2019-01-15T02:02:24.792Z,0.96
2019-01-15T02:03:05.325Z,0.97
2019-01-15T02:03:45.859Z,1.06
2019-01-15T02:04:26.383Z,1.02
2019-01-15T02:05:06.902Z,0.96
2019-01-15T02:05:47.425Z,1.06
2019-01-15T02:06:27.950Z,1
2019-01-15T02:07:08.467Z,1
2019-01-15T02:07:48.993Z,0.98
2019-01-15T02:08:29.515Z,1.06
2019-01-15T02:09:10.038Z,0.94
2019-01-15T02:09:50.561Z,0.97
2019-01-15T02:10:31.084Z,1
2019-01-15T02:11:11.601Z,0.98
2019-01-15T02:11:52.120Z,0.93
2019-01-15T02:12:36.754Z,0.98
2019-01-15T02:13:13.164Z,0.98
2019-01-15T02:13:53.684Z,1.02
2019-01-15T02:14:34.201Z,0.98
2019-01-15T02:15:14.722Z,0.98
2019-01-15T02:15:55.245Z,1.04
2019-01-15T02:16:35.765Z,1.04
2019-01-15T02:17:16.288Z,0.97
2019-01-15T02:17:56.813Z,0.94
2019-01-15T02:18:37.338Z,0.98
2019-01-15T02:19:17.859Z,1.04
2019-01-15T02:19:58.377Z,1.02
2019-01-15T02:20:38.894Z,1.04
2019-01-15T02:21:19.411Z,1.05
2019-01-15T02:21:59.938Z,0.94
2019-01-15T02:22:40.462Z,0.98
2019-01-15T02:23:20.986Z,1.02
2019-01-15T02:24:01.506Z,1
2019-01-15T02:24:42.022Z,0.98
2019-01-15T02:25:22.554Z,0.97
2019-01-15T02:26:03.080Z,1.04
2019-01-15T02:26:43.599Z,0.98
2019-01-15T02:27:24.120Z,0.96
2019-01-15T02:28:04.640Z,1.05
2019-01-15T02:28:45.159Z,0.97
2019-01-15T02:29:25.681Z,1.04
2019-01-15T02:30:06.208Z,0.97
2019-01-15T02:30:46.721Z,1.09
2019-01-15T02:31:27.241Z,1.05
2019-01-15T02:32:07.761Z,1.02
2019-01-15T02:32:48.283Z,0.97
2019-01-15T02:33:28.806Z,0.97
2019-01-15T02:34:09.318Z,1.05
2019-01-15T02:34:49.839Z,1.02
2019-01-15T02:35:30.362Z,1.05
2019-01-15T02:36:10.881Z,1.04
2019-01-15T02:36:51.387Z,1.08
2019-01-15T02:37:31.910Z,1.06
2019-01-15T02:38:12.412Z,1.08
2019-01-15T02:38:52.934Z,1.09
2019-01-15T02:39:33.459Z,1.06
2019-01-15T02:40:13.976Z,1.06
2019-01-15T02:40:54.498Z,1.04
2019-01-15T02:41:35.017Z,1.12
2019-01-15T02:42:15.536Z,1.11
2019-01-15T02:42:56.062Z,1
2019-01-15T02:43:36.581Z,1.06
2019-01-15T02:44:17.099Z,1.02
2019-01-15T02:44:57.622Z,1.06
2019-01-15T02:45:38.139Z,1.16
2019-01-15T02:46:18.652Z,1.16
2019-01-15T02:46:59.163Z,1.32
2019-01-15T02:47:39.688Z,1.22
2019-01-15T02:48:20.211Z,1.24
2019-01-15T02:49:00.734Z,1.23
2019-01-15T02:49:41.253Z,1.24
2019-01-15T02:50:21.776Z,1.29
2019-01-15T02:51:02.299Z,1.26
2019-01-15T02:51:42.823Z,1.2
2019-01-15T02:52:23.346Z,1.24
2019-01-15T02:53:03.867Z,1.23
2019-01-15T02:53:44.390Z,1.24
2019-01-15T02:54:24.910Z,1.22
2019-01-15T02:55:05.428Z,1.24
2019-01-15T02:55:45.956Z,1.2
2019-01-15T02:56:26.477Z,1.29
2019-01-15T02:57:07.004Z,1.3
2019-01-15T02:57:47.524Z,1.26
2019-01-15T02:58:28.054Z,1.34
2019-01-15T02:59:08.566Z,1.33
2019-01-15T02:59:49.087Z,1.3
2019-01-15T03:00:29.615Z,1.22
2019-01-15T03:01:10.122Z,1.29
2019-01-15T03:01:50.638Z,1.16
2019-01-15T03:02:31.165Z,1.18
2019-01-15T03:03:11.682Z,1.29
2019-01-15T03:03:52.200Z,1.22
2019-01-15T03:04:32.711Z,1.23
2019-01-15T03:05:13.242Z,1.18
2019-01-15T03:05:53.765Z,1.18
2019-01-15T03:06:34.298Z,1.32
2019-01-15T03:07:14.819Z,1.32
2019-01-15T03:07:55.341Z,1.26
2019-01-15T03:08:35.845Z,1.3
2019-01-15T03:09:16.365Z,1.33
2019-01-15T03:09:56.884Z,1.27
2019-01-15T03:10:37.408Z,1.29
2019-01-15T03:11:17.923Z,1.15
2019-01-15T03:11:58.448Z,1.29
2019-01-15T03:12:38.965Z,1.26
2019-01-15T03:13:19.481Z,1.3
2019-01-15T03:14:00.048Z,1.3
2019-01-15T03:14:40.523Z,1.32
2019-01-15T03:15:21.057Z,1.24
2019-01-15T03:16:01.582Z,1.3
2019-01-15T03:16:42.107Z,1.24
2019-01-15T03:17:22.656Z,1.24
2019-01-15T03:18:03.148Z,1.15
2019-01-15T03:18:43.668Z,1.22
2019-01-15T03:19:24.191Z,1.16
2019-01-15T03:20:04.709Z,1.11
2019-01-15T03:20:45.241Z,1.16
2019-01-15T03:21:25.754Z,1.23
2019-01-15T03:22:06.271Z,1.2
2019-01-15T03:22:46.797Z,1.18
2019-01-15T03:23:27.312Z,1.2
2019-01-15T03:24:07.843Z,1.24
2019-01-15T03:24:48.359Z,1.08
2019-01-15T03:25:28.892Z,1.18
2019-01-15T03:26:09.418Z,1.16
2019-01-15T03:26:49.941Z,1.18
2019-01-15T03:27:30.471Z,1.22
2019-01-15T03:28:10.994Z,1.11
2019-01-15T03:28:51.517Z,1.12
2019-01-15T03:29:32.040Z,1.12
2019-01-15T03:30:12.658Z,1.15
2019-01-15T03:30:53.182Z,1.24
2019-01-15T03:31:33.715Z,1.12
2019-01-15T03:32:14.232Z,1.06
2019-01-15T03:35:28.081Z,1.09
2019-01-15T03:36:08.596Z,1.09
2019-01-15T03:36:49.118Z,1.12
2019-01-15T03:37:29.644Z,0.98
2019-01-15T03:38:10.166Z,1.08
2019-01-15T03:38:50.674Z,1.05
2019-01-15T03:39:31.197Z,1.05
2019-01-15T03:40:11.712Z,1
2019-01-15T03:40:52.238Z,1.05
2019-01-15T03:41:32.759Z,0.98
2019-01-15T03:42:13.294Z,1.06
2019-01-15T03:42:53.818Z,1.08
2019-01-15T03:43:34.344Z,1.05
2019-01-15T03:44:14.857Z,1.04
2019-01-15T03:44:55.377Z,1
2019-01-15T03:45:35.895Z,1.05
2019-01-15T03:46:21.104Z,1.11
2019-01-15T03:47:01.626Z,1.06
2019-01-15T03:47:42.140Z,1.06
2019-01-15T03:48:22.660Z,1.06
2019-01-15T03:49:03.185Z,1.08
2019-01-15T03:49:43.709Z,1.05
2019-01-15T03:50:24.228Z,1.09
2019-01-15T03:51:04.747Z,1.05
2019-01-15T03:51:45.273Z,1.12
2019-01-15T03:52:25.791Z,1.04
2019-01-15T03:53:06.312Z,1.04
2019-01-15T03:53:46.831Z,1.08
2019-01-15T03:54:27.356Z,1.09
2019-01-15T03:55:07.873Z,1.05
2019-01-15T03:55:48.413Z,1.11
2019-01-15T03:56:28.934Z,1.09
2019-01-15T03:57:09.458Z,1.15
2019-01-15T03:57:49.980Z,1
2019-01-15T03:58:30.498Z,1.11
2019-01-15T03:59:11.021Z,1.04
2019-01-15T03:59:51.544Z,1.06
2019-01-15T04:00:32.087Z,1.08
2019-01-15T04:01:12.639Z,0.98
2019-01-15T04:01:53.149Z,1.08
2019-01-15T04:02:33.676Z,1.02
2019-01-15T04:03:14.211Z,0.94
2019-01-15T04:03:54.732Z,0.98
2019-01-15T04:04:35.269Z,1
2019-01-15T04:05:15.800Z,1.08
2019-01-15T04:05:56.353Z,1
2019-01-15T04:06:36.876Z,0.94
2019-01-15T04:07:17.405Z,0.96
2019-01-15T04:07:57.950Z,0.98
2019-01-15T04:08:38.474Z,0.93
2019-01-15T04:09:19.004Z,1.05
2019-01-15T04:09:59.545Z,1
2019-01-15T04:10:40.071Z,1.04
2019-01-15T04:11:20.617Z,0.96
2019-01-15T04:12:01.138Z,1.04
2019-01-15T04:12:41.678Z,1.04
2019-01-15T04:13:22.220Z,1.06
2019-01-15T04:14:02.752Z,1.05
2019-01-15T04:14:43.289Z,0.97
2019-01-15T04:15:23.818Z,1.02
2019-01-15T04:16:04.343Z,1.02
2019-01-15T04:16:44.866Z,1.06
2019-01-15T04:17:25.408Z,1.02
2019-01-15T04:18:05.938Z,1.04
2019-01-15T04:18:46.470Z,1.06
2019-01-15T04:19:27.025Z,1.11
2019-01-15T04:20:07.535Z,1.06
2019-01-15T04:20:48.078Z,1.08
2019-01-15T04:21:28.611Z,1.04
2019-01-15T04:22:09.159Z,1.08
2019-01-15T04:22:49.695Z,1.08
2019-01-15T04:23:30.226Z,1.04
2019-01-15T04:24:10.752Z,1.12
2019-01-15T04:24:51.276Z,1.15
2019-01-15T04:25:31.813Z,1.09
2019-01-15T04:26:12.343Z,1.05
2019-01-15T04:26:52.884Z,1.15
2019-01-15T04:27:33.415Z,1.02
2019-01-15T04:28:13.943Z,1.02
2019-01-15T04:28:54.476Z,1.11
2019-01-15T04:29:34.989Z,0.98
2019-01-15T04:30:15.524Z,1.08
2019-01-15T04:30:56.050Z,1.12
2019-01-15T04:31:36.592Z,1.09
2019-01-15T04:32:17.115Z,1.09
2019-01-15T04:32:57.649Z,1.05
2019-01-15T04:33:38.184Z,1.12
2019-01-15T04:34:18.726Z,1.11
2019-01-15T04:34:59.266Z,1.06
2019-01-15T04:35:39.788Z,1.11
2019-01-15T04:36:20.314Z,1.02
2019-01-15T04:37:00.853Z,1.11
2019-01-15T04:37:41.389Z,1.02
2019-01-15T04:38:21.905Z,1.11
2019-01-15T04:39:02.447Z,1.04
2019-01-15T04:39:42.975Z,1.11
2019-01-15T04:40:23.508Z,1.08
2019-01-15T04:41:04.057Z,1.09
2019-01-15T04:41:44.606Z,1.05
2019-01-15T04:42:25.124Z,1.11
2019-01-15T04:43:05.656Z,1.08
2019-01-15T04:43:46.191Z,0.98
2019-01-15T04:44:28.485Z,1.11
2019-01-15T04:45:11.393Z,1.11
2019-01-15T04:45:51.919Z,1.02
2019-01-15T04:46:32.446Z,1.11
2019-01-15T04:47:12.976Z,1.04
2019-01-15T04:47:53.514Z,1.02
2019-01-15T04:48:34.065Z,0.96
2019-01-15T04:49:14.594Z,0.98
2019-01-15T04:49:55.118Z,1.02
2019-01-15T04:50:35.650Z,1
2019-01-15T04:51:16.168Z,0.98
2019-01-15T04:51:56.692Z,1.02
2019-01-15T04:52:37.222Z,0.96
2019-01-15T04:53:17.743Z,0.98
2019-01-15T04:53:58.285Z,1.02
2019-01-15T04:54:38.811Z,0.98
2019-01-15T04:55:19.686Z,0.98
2019-01-15T04:56:00.205Z,1
2019-01-15T04:56:40.753Z,0.97
2019-01-15T04:57:21.292Z,1.02
2019-01-15T04:58:01.814Z,0.98
2019-01-15T04:58:42.365Z,1.05
2019-01-15T04:59:22.899Z,0.96
2019-01-15T05:00:03.443Z,1.04
2019-01-15T05:00:43.963Z,0.98
2019-01-15T05:01:24.512Z,1.04
2019-01-15T05:02:05.041Z,1.04
2019-01-15T05:02:45.616Z,1.04
2019-01-15T05:03:26.116Z,1.04
2019-01-15T05:04:06.645Z,0.98
2019-01-15T05:04:47.182Z,0.96
2019-01-15T05:05:27.722Z,1.05
2019-01-15T05:06:08.245Z,0.9
2019-01-15T05:06:48.778Z,1
2019-01-15T05:07:29.298Z,0.96
2019-01-15T05:08:09.832Z,1.02
2019-01-15T05:08:50.368Z,1.04
2019-01-15T05:09:30.900Z,1.05
2019-01-15T05:10:11.423Z,0.97
2019-01-15T05:10:54.394Z,0.98
2019-01-15T05:11:37.292Z,0.96
2019-01-15T05:12:21.393Z,0.97
2019-01-15T05:13:03.489Z,0.93
2019-01-15T05:13:48.285Z,0.97
2019-01-15T05:14:32.285Z,1.06
2019-01-15T05:15:15.481Z,1
2019-01-15T05:15:56.046Z,0.98
2019-01-15T05:16:36.548Z,0.97
2019-01-15T05:17:17.062Z,0.93
2019-01-15T05:17:57.594Z,0.91
2019-01-15T05:18:38.143Z,0.97
2019-01-15T05:19:18.673Z,0.93
2019-01-15T05:19:59.216Z,0.96
2019-01-15T05:20:39.755Z,0.96
2019-01-15T05:21:20.294Z,0.91
2019-01-15T05:22:00.823Z,0.97
2019-01-15T05:22:41.354Z,0.96
2019-01-15T05:23:21.892Z,0.98
2019-01-15T05:24:02.437Z,0.88
2019-01-15T05:24:42.964Z,0.9
2019-01-15T05:25:23.495Z,0.93
2019-01-15T05:26:04.027Z,0.9
2019-01-15T05:26:44.560Z,0.9
2019-01-15T05:27:25.092Z,0.9
2019-01-15T05:28:05.632Z,0.93
2019-01-15T05:28:46.151Z,0.9
2019-01-15T05:29:26.685Z,0.9
2019-01-15T05:30:07.218Z,0.91
2019-01-15T05:30:47.748Z,0.9
2019-01-15T05:31:28.262Z,0.91
2019-01-15T05:32:08.793Z,0.9
2019-01-15T05:32:49.319Z,0.94
2019-01-15T05:33:29.858Z,0.88
2019-01-15T05:34:10.388Z,0.91
2019-01-15T05:34:50.925Z,0.96
2019-01-15T05:35:31.456Z,0.9
2019-01-15T05:36:11.998Z,0.96
2019-01-15T05:36:52.527Z,1
2019-01-15T05:37:33.066Z,1
2019-01-15T05:38:13.601Z,0.94
2019-01-15T05:38:54.131Z,0.93
2019-01-15T05:39:34.656Z,0.96
2019-01-15T05:40:15.199Z,0.93
2019-01-15T05:40:55.733Z,0.94
2019-01-15T05:41:36.254Z,0.93
2019-01-15T05:42:16.774Z,0.94
2019-01-15T05:42:57.302Z,0.96
2019-01-15T05:43:37.827Z,0.94
2019-01-15T05:44:18.350Z,0.98
2019-01-15T05:44:58.876Z,0.96
2019-01-15T05:45:39.413Z,0.96
2019-01-15T05:46:19.945Z,0.96
2019-01-15T05:47:00.471Z,0.9
2019-01-15T05:47:40.998Z,0.94
2019-01-15T05:48:21.533Z,0.97
2019-01-15T05:49:08.711Z,0.94
2019-01-15T05:49:50.742Z,0.96
2019-01-15T05:50:29.783Z,0.93
2019-01-15T05:51:10.321Z,1
2019-01-15T05:51:50.843Z,0.97
2019-01-15T05:52:31.374Z,0.94
2019-01-15T05:53:11.897Z,0.96
2019-01-15T05:53:52.418Z,1.02
2019-01-15T05:54:32.947Z,0.97
2019-01-15T05:55:13.474Z,0.96
2019-01-15T05:55:54.001Z,1.05
2019-01-15T05:56:34.534Z,1.04
2019-01-15T05:57:15.057Z,0.96
2019-01-15T05:57:55.577Z,0.98
2019-01-15T05:58:36.103Z,0.96
2019-01-15T05:59:31.215Z,0.98
2019-01-15T06:02:09.638Z,0.96
2019-01-15T06:02:50.987Z,0.9
2019-01-15T06:03:30.697Z,0.96
2019-01-15T06:04:11.213Z,0.97
2019-01-15T06:04:51.734Z,0.94
2019-01-15T06:05:32.256Z,0.94
2019-01-15T06:06:12.783Z,0.94
2019-01-15T06:06:53.306Z,0.93
2019-01-15T06:07:33.933Z,0.93
2019-01-15T06:08:14.356Z,0.88
2019-01-15T06:08:54.909Z,0.97
2019-01-15T06:09:35.434Z,0.93
2019-01-15T06:10:15.963Z,0.96
2019-01-15T06:10:56.491Z,0.93
2019-01-15T06:11:37.028Z,0.88
2019-01-15T06:12:17.562Z,0.86
2019-01-15T06:12:58.081Z,0.88
2019-01-15T06:13:42.562Z,0.87
2019-01-15T06:14:19.138Z,0.84
2019-01-15T06:14:59.683Z,0.9
2019-01-15T06:15:40.216Z,0.87
2019-01-15T06:16:20.753Z,0.96
2019-01-15T06:17:01.287Z,0.93
2019-01-15T06:17:41.819Z,0.96
2019-01-15T06:18:22.362Z,0.93
2019-01-15T06:19:02.885Z,0.94
2019-01-15T06:19:43.418Z,0.94
2019-01-15T06:20:23.950Z,0.94
2019-01-15T06:21:04.474Z,0.98
2019-01-15T06:21:45.006Z,0.97
2019-01-15T06:22:25.535Z,0.97
2019-01-15T06:23:06.068Z,1.04
2019-01-15T06:23:46.598Z,0.96
2019-01-15T06:24:27.129Z,1.04
2019-01-15T06:25:07.679Z,0.98
2019-01-15T06:25:48.204Z,0.94
2019-01-15T06:26:28.742Z,1.02
2019-01-15T06:27:09.277Z,0.97
2019-01-15T06:27:49.806Z,0.98
2019-01-15T06:28:30.340Z,1.02
2019-01-15T06:29:10.890Z,0.93
2019-01-15T06:29:51.410Z,1.05
2019-01-15T06:30:31.937Z,0.98
2019-01-15T06:31:12.458Z,0.98
2019-01-15T06:31:52.995Z,0.93
2019-01-15T06:32:33.522Z,0.96
2019-01-15T06:33:14.041Z,1.02
2019-01-15T06:33:54.574Z,1
2019-01-15T06:34:35.104Z,0.97
2019-01-15T06:35:15.634Z,0.96
2019-01-15T06:35:56.167Z,0.97
2019-01-15T06:36:36.691Z,1.05
2019-01-15T06:37:17.223Z,0.97
2019-01-15T06:37:57.765Z,1.05
2019-01-15T06:38:38.280Z,1.05
2019-01-15T06:39:18.816Z,0.97
2019-01-15T06:39:59.332Z,1.08
2019-01-15T06:40:39.873Z,1.02
2019-01-15T06:41:20.406Z,1
2019-01-15T06:42:00.960Z,1.02
2019-01-15T06:42:41.481Z,1.04
2019-01-15T06:43:22.014Z,0.91
2019-01-15T06:44:02.544Z,0.96
2019-01-15T06:44:43.075Z,1
2019-01-15T06:45:23.599Z,1.02
2019-01-15T06:46:04.140Z,0.96
2019-01-15T06:46:44.664Z,0.97
2019-01-15T06:47:25.189Z,0.94
2019-01-15T06:48:05.730Z,0.97
2019-01-15T06:48:46.256Z,0.96
2019-01-15T06:49:26.795Z,0.94
2019-01-15T06:50:07.325Z,0.93
2019-01-15T06:50:47.857Z,0.94
2019-01-15T06:51:28.387Z,0.9
2019-01-15T06:52:08.925Z,1.05
2019-01-15T06:52:49.459Z,0.94
2019-01-15T06:53:30.005Z,1.05
2019-01-15T06:54:10.541Z,0.97
2019-01-15T06:54:51.061Z,1.02
2019-01-15T06:55:31.591Z,0.94
2019-01-15T06:56:12.119Z,1.05
2019-01-15T06:56:52.643Z,0.98
2019-01-15T06:57:33.168Z,1.04
2019-01-15T06:58:13.708Z,0.94
2019-01-15T06:58:54.237Z,0.94
2019-01-15T06:59:34.764Z,1.02
2019-01-15T07:00:15.294Z,0.96
2019-01-15T07:00:55.822Z,1.02
2019-01-15T07:01:36.341Z,0.97
2019-01-15T07:02:16.873Z,0.96
2019-01-15T07:02:57.403Z,0.96
2019-01-15T07:03:37.938Z,1.04
2019-01-15T07:04:18.476Z,0.98
2019-01-15T07:04:59.008Z,0.96
2019-01-15T07:05:39.535Z,0.97
2019-01-15T07:06:20.069Z,1
2019-01-15T07:07:00.595Z,0.96
2019-01-15T07:07:41.124Z,1.02
2019-01-15T07:08:21.653Z,1
2019-01-15T07:09:02.182Z,1
2019-01-15T07:09:42.722Z,1.04
2019-01-15T07:10:23.242Z,1.02
2019-01-15T07:11:03.767Z,0.96
2019-01-15T07:11:44.304Z,1.09
2019-01-15T07:12:24.849Z,1.06
2019-01-15T07:13:05.374Z,1.08
2019-01-15T07:13:45.904Z,1.09
2019-01-15T07:14:26.424Z,1.05
2019-01-15T07:15:06.952Z,1.12
2019-01-15T07:15:47.483Z,1.09
2019-01-15T07:16:28.010Z,1.22
2019-01-15T07:17:08.537Z,1.16
2019-01-15T07:17:49.073Z,1.18
2019-01-15T07:18:29.614Z,1.26
2019-01-15T07:19:10.144Z,1.24
2019-01-15T07:19:50.677Z,1.14
2019-01-15T07:20:31.209Z,1.32
2019-01-15T07:21:11.745Z,1.29
2019-01-15T07:21:52.271Z,1.34
2019-01-15T07:22:32.812Z,1.33
2019-01-15T07:23:13.337Z,1.41
2019-01-15T07:26:07.004Z,1.4
2019-01-15T07:26:47.547Z,1.37
2019-01-15T07:27:28.076Z,1.37
2019-01-15T07:28:08.616Z,1.44
2019-01-15T07:28:49.150Z,1.44
2019-01-15T07:29:29.693Z,1.44
2019-01-15T07:30:10.224Z,1.47
2019-01-15T07:30:50.753Z,1.37
2019-01-15T07:31:31.273Z,1.41
2019-01-15T07:32:11.811Z,1.48
2019-01-15T07:32:52.358Z,1.47
2019-01-15T07:33:32.885Z,1.47
2019-01-15T07:34:13.419Z,1.47
2019-01-15T07:34:53.946Z,1.54
2019-01-15T07:35:34.473Z,1.55
2019-01-15T07:36:15.003Z,1.62
2019-01-15T07:36:55.539Z,1.63
2019-01-15T07:37:36.056Z,1.54
2019-01-15T07:38:16.591Z,1.63
2019-01-15T07:38:57.122Z,1.63
2019-01-15T07:39:37.660Z,1.7
2019-01-15T07:40:18.181Z,1.72
2019-01-15T07:40:58.709Z,1.72
2019-01-15T07:41:39.242Z,1.72
2019-01-15T07:42:19.771Z,1.66
2019-01-15T07:43:00.307Z,1.65
2019-01-15T07:43:40.837Z,1.72
2019-01-15T07:44:21.368Z,1.68
2019-01-15T07:45:01.915Z,1.66
2019-01-15T07:45:42.431Z,1.6
2019-01-15T07:46:22.952Z,1.63
2019-01-15T07:47:03.486Z,1.65
2019-01-15T07:47:44.033Z,1.6
2019-01-15T07:48:24.568Z,1.62
2019-01-15T07:49:05.104Z,1.7
2019-01-15T07:49:45.632Z,1.65
2019-01-15T07:50:26.168Z,1.66
2019-01-15T07:51:06.697Z,1.76
2019-01-15T07:51:47.230Z,1.76
2019-01-15T07:52:27.762Z,1.73
2019-01-15T07:53:08.302Z,1.65
2019-01-15T07:53:48.833Z,1.69
2019-01-15T07:54:29.359Z,1.7
2019-01-15T07:55:09.895Z,1.76
2019-01-15T07:55:50.437Z,1.7
2019-01-15T07:56:30.960Z,1.77
2019-01-15T07:57:11.491Z,1.68
2019-01-15T07:57:52.025Z,1.8
2019-01-15T07:58:32.560Z,1.73
2019-01-15T07:59:13.078Z,1.73
2019-01-15T07:59:53.612Z,1.8
2019-01-15T08:00:34.137Z,1.8
2019-01-15T08:01:14.661Z,1.79
2019-01-15T08:01:55.193Z,1.81
2019-01-15T08:02:35.733Z,1.77
2019-01-15T08:03:16.261Z,1.79
2019-01-15T08:03:56.800Z,1.84
2019-01-15T08:04:37.336Z,1.77
2019-01-15T08:05:17.871Z,1.79
2019-01-15T08:05:58.411Z,1.83
2019-01-15T08:06:38.952Z,1.8
2019-01-15T08:07:19.489Z,1.79
2019-01-15T08:08:00.004Z,1.79
2019-01-15T08:08:40.547Z,1.8
2019-01-15T08:09:21.077Z,1.81
2019-01-15T08:10:01.606Z,1.81
2019-01-15T08:10:42.143Z,1.8
2019-01-15T08:11:22.672Z,1.77
2019-01-15T08:12:03.196Z,1.8
2019-01-15T08:12:43.731Z,1.83
2019-01-15T08:13:24.267Z,1.81
2019-01-15T08:14:11.651Z,1.87
2019-01-15T08:14:45.324Z,1.83
2019-01-15T08:15:25.865Z,1.84
2019-01-15T08:16:06.388Z,1.9
2019-01-15T08:16:46.922Z,1.95
2019-01-15T08:17:27.461Z,1.91
2019-01-15T08:18:07.992Z,1.9
2019-01-15T08:18:48.530Z,1.9
2019-01-15T08:19:29.069Z,1.88
2019-01-15T08:20:09.609Z,1.87
2019-01-15T08:20:50.130Z,1.98
2019-01-15T08:21:30.669Z,2.07
2019-01-15T08:22:11.190Z,1.98
2019-01-15T08:25:25.046Z,2.09
2019-01-15T08:26:05.588Z,2.05
2019-01-15T08:26:46.108Z,2.03
2019-01-15T08:27:26.644Z,2.05
2019-01-15T08:28:07.180Z,1.99
2019-01-15T08:28:47.704Z,2.07
2019-01-15T08:29:28.240Z,2.12
2019-01-15T08:30:08.768Z,2.1
2019-01-15T08:30:49.291Z,2.06
2019-01-15T08:31:29.828Z,2.09
2019-01-15T08:32:10.360Z,2.18
2019-01-15T08:35:04.022Z,2.23
2019-01-15T08:35:44.554Z,2.24
2019-01-15T08:36:25.072Z,2.31
2019-01-15T08:37:05.602Z,2.24
2019-01-15T08:37:46.145Z,2.27
2019-01-15T08:38:26.663Z,2.34
2019-01-15T08:39:07.190Z,2.34
2019-01-15T08:39:47.720Z,2.35
2019-01-15T08:40:28.253Z,2.34
2019-01-15T08:41:08.795Z,2.28
2019-01-15T08:41:49.327Z,2.36
2019-01-15T08:42:29.859Z,2.36
2019-01-15T08:43:10.383Z,2.39
2019-01-15T08:43:50.912Z,2.41
2019-01-15T08:44:31.442Z,2.45
2019-01-15T08:45:11.975Z,2.45
2019-01-15T08:45:55.298Z,2.43
2019-01-15T08:46:33.048Z,2.49
2019-01-15T08:47:13.576Z,2.41
2019-01-15T08:47:54.100Z,2.53
2019-01-15T08:48:34.616Z,2.54
2019-01-15T08:49:15.160Z,2.45
2019-01-15T08:49:55.701Z,2.39
2019-01-15T08:50:36.236Z,2.54
2019-01-15T08:51:16.758Z,2.54
2019-01-15T08:51:57.293Z,2.59
2019-01-15T08:52:37.827Z,2.63
2019-01-15T08:53:18.375Z,2.61
2019-01-15T08:53:58.909Z,2.61
2019-01-15T08:54:39.437Z,2.6
2019-01-15T08:55:19.957Z,2.61
2019-01-15T08:56:00.494Z,2.59
2019-01-15T08:56:41.023Z,2.64
2019-01-15T08:57:21.553Z,2.66
2019-01-15T08:58:02.080Z,2.72
2019-01-15T08:58:42.620Z,2.67
2019-01-15T08:59:23.151Z,2.6
2019-01-15T09:00:03.678Z,2.75
2019-01-15T09:00:44.218Z,2.75
2019-01-15T09:01:24.750Z,2.69
2019-01-15T09:02:05.278Z,2.84
2019-01-15T09:02:45.818Z,2.79
2019-01-15T09:03:26.357Z,2.84
2019-01-15T09:04:06.900Z,2.84
2019-01-15T09:04:47.428Z,2.82
2019-01-15T09:05:27.960Z,2.89
2019-01-15T09:06:08.489Z,2.9
2019-01-15T09:06:49.018Z,2.95
2019-01-15T09:07:29.568Z,2.95
2019-01-15T09:08:10.099Z,2.92
2019-01-15T09:08:50.638Z,2.97
2019-01-15T09:09:31.173Z,2.95
2019-01-15T09:12:19.749Z,3.05
2019-01-15T09:13:00.298Z,3.1
2019-01-15T09:13:40.834Z,3.14
2019-01-15T09:14:26.654Z,3.17
2019-01-15T09:15:01.892Z,3.14
2019-01-15T09:15:42.426Z,3.11
2019-01-15T09:16:22.953Z,3.13
2019-01-15T09:17:10.769Z,3.17
2019-01-15T09:17:44.018Z,3.1
2019-01-15T09:18:24.563Z,3.1
2019-01-15T09:19:05.091Z,3.26
2019-01-15T09:19:45.623Z,3.23